Taylor, New York
Current Conditions -  °F | °C
As of 10:55 PM on Saturday 22 Nov 2014 (Local Time) from KN03 Reporting Station
Moderate Rain Moderate Rain  
Wind Chill: 37°   Ceiling: 2500
Heat Index: 41°   Visibility: 5mi
Dew Point: 37°   Wind: 6mph
Humidity: 87%   Direction: 230°SW
Pressure: 30.06"   Gusts: NA
Location:  42.5415°N, 75.9009°W
Report Text: KN03 230355Z AUTO 23005KT 5SM RA OVC025 05/03 A3006 RMK AO2
Loading
Personal Weather Stations






























Interactive Weather Map New forecast layout! Learn more

10-Day Weather Forecast

Advertisements
Track Severe Weather on mobile